Flight Track Log - Related Links

Times and Time Zones

All times are in EDT time to prevent confusion due to time zone crossing. See the SKW6446 flight status page for this flight to view local times or setup timezone preferences in your user account.

Time Position Orientation Groundspeed Altitude Reporting Facility
EDT Latitude Longitude Course Direction KTS MPH feet Rate Location/Type
Fri 08:59:06 PM 34.9339 -120.4358 39° Northeast 180 207 3,400  Level Los Angeles Center
Fri 09:00:07 PM 34.9028 -120.3928 131° Southeast 196 226 5,100 1,816 Climbing Los Angeles Center
Fri 09:01:00 PM 34.7761 -120.1861 112° Southeast  Level Estimated
Fri 09:02:00 PM 34.7347 -120.0957 116° Southeast  Level Estimated
Fri 09:02:11 PM 34.8183 -120.2636 129° Southeast 222 255 9,000  Level Los Angeles Center
Fri 09:03:00 PM 34.6933 -120.0053 126° Southeast  Level Estimated
Fri 09:03:14 PM 34.7769 -120.2011 129° Southeast 234 269 10,600  Level Los Angeles Center
Fri 09:04:16 PM 34.7372 -120.1331 125° Southeast 244 281 11,600 919 Climbing Los Angeles Center
Fri 09:05:18 PM 34.6956 -120.0647 127° Southeast 239 275 12,500 629 Climbing Los Angeles Center
Fri 09:06:20 PM 34.6556 -119.9967 126° Southeast 246 283 12,900 194 Climbing Los Angeles Center
Fri 09:07:22 PM 34.6119 -119.9242 126° Southeast 264 304 12,900 48 Level Los Angeles Center
Fri 09:08:24 PM 34.5592 -119.8469 130° Southeast 270 311 13,000 48 Climbing Los Angeles Center
Fri 09:09:26 PM 34.5117 -119.7742 128° Southeast 274 315 13,000  Level Los Angeles Center
Fri 09:10:28 PM 34.4672 -119.6953 124° Southeast 282 325 13,000  Level Los Angeles Center
Fri 09:11:30 PM 34.4186 -119.5983 121° Southeast 282 325 13,000  Level Los Angeles Center
Fri 09:12:32 PM 34.3758 -119.5189 123° Southeast 282 325 13,000  Level Los Angeles Center
Fri 09:13:34 PM 34.3314 -119.4408 125° Southeast 282 325 13,000 -97 Level Los Angeles Center
Fri 09:14:36 PM 34.2883 -119.3603 123° Southeast 285 328 12,800 -532 Descending Los Angeles Center
Fri 09:15:38 PM 34.2433 -119.2758 123° Southeast 301 346 11,900 -774 Descending Los Angeles Center
Fri 09:16:40 PM 34.1961 -119.1911 124° Southeast 303 349 11,200 -387 Descending Los Angeles Center
Fri 09:17:42 PM 34.1403 -119.0919 124° Southeast 297 342 11,100 -96 Descending Los Angeles Center
Fri 09:18:45 PM 34.1189 -119.0025 106° East 277 319 11,000 -96 Descending Los Angeles Center
Fri 09:19:47 PM 34.1025 -118.9114 102° East 277 319 10,900 -290 Descending Los Angeles Center
Fri 09:20:49 PM 34.0839 -118.8175 103° East 286 329 10,400 -387 Descending Los Angeles Center
Fri 09:21:51 PM 34.0631 -118.7139 104° East 293 337 10,100 -242 Descending Los Angeles Center
Fri 09:22:53 PM 34.0436 -118.6164 104° East 281 323 9,900 -774 Descending Los Angeles Center
Fri 09:23:55 PM 34.0244 -118.5228 104° East 289 333 8,500 -1,306 Descending Los Angeles Center
Fri 09:24:57 PM 34.0161 -118.4294 96° East 278 320 7,200 -823 Descending Los Angeles Center
Fri 09:25:59 PM 34.0250 -118.3494 82° East 247 284 6,800 -871 Descending Los Angeles Center
Fri 09:27:01 PM 34.0333 -118.2778 82° East 223 257 5,400 -968 Descending Los Angeles Center
Fri 09:28:03 PM 34.0333 -118.2078 90° East 230 265 4,800 -1,113 Descending Los Angeles Center
Fri 09:29:05 PM 33.9831 -118.2189 190° South 228 262 3,100 -1,645 Descending Los Angeles Center

Login

Don't have an account? Register now (free) for customized features, flight alerts, and more!